createdAt,value
2023-08-20T00:00:09.332Z,99356.81
2023-08-20T00:02:38.788Z,99361.22
2023-08-20T00:05:06.255Z,99343.69
2023-08-20T00:07:33.933Z,99347.56
2023-08-20T00:10:01.272Z,99339.16
2023-08-20T00:12:28.314Z,99343.53
2023-08-20T00:15:06.330Z,99344.91
2023-08-20T00:17:43.173Z,99339.53
2023-08-20T00:20:17.772Z,99349.00
2023-08-20T00:22:46.607Z,99335.13
2023-08-20T00:25:17.964Z,99346.38
2023-08-20T00:27:45.615Z,99348.25
2023-08-20T00:30:13.304Z,99346.59
2023-08-20T00:32:40.395Z,99349.28
2023-08-20T00:35:08.986Z,99352.69
2023-08-20T00:37:36.787Z,99352.09
2023-08-20T00:40:07.599Z,99348.38
2023-08-20T00:42:34.730Z,99354.53
2023-08-20T00:45:01.707Z,99353.72
2023-08-20T00:47:29.777Z,99346.84
2023-08-20T00:49:57.449Z,99350.31
2023-08-20T00:52:24.353Z,99348.56
2023-08-20T00:54:51.816Z,99351.13
2023-08-20T00:57:20.762Z,99351.53
2023-08-20T00:59:51.792Z,99354.91
2023-08-20T01:02:19.301Z,99357.09
2023-08-20T01:04:48.883Z,99361.97
2023-08-20T01:07:40.625Z,99357.84
2023-08-20T01:10:23.938Z,99361.28
2023-08-20T01:12:52.815Z,99358.06
2023-08-20T01:15:19.887Z,99359.88
2023-08-20T01:17:49.843Z,99360.56
2023-08-20T01:20:17.878Z,99365.75
2023-08-20T01:23:14.124Z,99378.75
2023-08-20T01:26:02.369Z,99371.75
2023-08-20T01:28:31.472Z,99373.66
2023-08-20T01:31:02.055Z,99375.47
2023-08-20T01:33:29.440Z,99379.75
2023-08-20T01:35:56.751Z,99382.16
2023-08-20T01:38:23.872Z,99379.56
2023-08-20T01:40:51.296Z,99377.94
2023-08-20T01:43:18.297Z,99383.00
2023-08-20T01:45:45.249Z,99373.97
2023-08-20T01:48:12.313Z,99382.16
2023-08-20T01:50:39.338Z,99376.53
2023-08-20T01:53:06.218Z,99374.69
2023-08-20T01:55:33.265Z,99382.63
2023-08-20T01:58:00.822Z,99377.72
2023-08-20T02:00:29.003Z,99368.97
2023-08-20T02:02:55.995Z,99370.75
2023-08-20T02:05:23.016Z,99375.91
2023-08-20T02:07:50.166Z,99364.50
2023-08-20T02:10:17.075Z,99368.09
2023-08-20T02:12:44.672Z,99371.59
2023-08-20T02:15:14.483Z,99369.72
2023-08-20T02:17:41.515Z,99375.22
2023-08-20T02:20:14.322Z,99373.38
2023-08-20T02:22:41.324Z,99376.38
2023-08-20T02:25:08.898Z,99380.53
2023-08-20T02:27:36.159Z,99372.88
2023-08-20T02:30:04.358Z,99377.19
2023-08-20T02:32:33.241Z,99381.53
2023-08-20T02:35:00.336Z,99379.00
2023-08-20T02:37:27.475Z,99383.47
2023-08-20T02:39:54.362Z,99386.97
2023-08-20T02:42:21.293Z,99386.78
2023-08-20T02:44:48.236Z,99394.00
2023-08-20T02:47:15.105Z,99393.38
2023-08-20T02:49:42.049Z,99391.63
2023-08-20T02:52:09.004Z,99396.03
2023-08-20T02:54:36.031Z,99389.94
2023-08-20T02:57:02.990Z,99389.84
2023-08-20T02:59:29.898Z,99393.38
2023-08-20T03:01:56.820Z,99390.63
2023-08-20T03:04:23.800Z,99401.56
2023-08-20T03:06:50.761Z,99397.00
2023-08-20T03:09:17.609Z,99401.50
2023-08-20T03:11:44.691Z,99402.25
2023-08-20T03:14:11.611Z,99398.63
2023-08-20T03:16:38.472Z,99403.81
2023-08-20T03:19:05.676Z,99399.72
2023-08-20T03:21:32.717Z,99398.84
2023-08-20T03:23:59.597Z,99398.81
2023-08-20T03:26:26.605Z,99395.38
2023-08-20T03:28:53.555Z,99399.97
2023-08-20T03:31:20.503Z,99399.06
2023-08-20T03:33:47.563Z,99401.00
2023-08-20T03:36:14.540Z,99401.88
2023-08-20T03:38:41.402Z,99408.31
2023-08-20T03:41:08.534Z,99409.28
2023-08-20T03:43:35.346Z,99406.56
2023-08-20T03:46:03.600Z,99413.56
2023-08-20T03:48:30.880Z,99416.16
2023-08-20T03:50:58.143Z,99411.75
2023-08-20T03:53:25.267Z,99405.63
2023-08-20T03:55:52.443Z,99400.44
2023-08-20T03:58:19.270Z,99405.75
2023-08-20T04:14:57.342Z,99414.38
2023-08-20T04:17:24.564Z,99414.72
2023-08-20T04:19:51.683Z,99430.41
2023-08-20T04:22:18.764Z,99430.38
2023-08-20T04:24:46.220Z,99433.53
2023-08-20T04:27:13.600Z,99429.88
2023-08-20T04:29:40.863Z,99434.34
2023-08-20T04:32:08.111Z,99428.13
2023-08-20T04:34:35.361Z,99433.56
2023-08-20T04:37:02.470Z,99430.72
2023-08-20T04:39:30.031Z,99437.69
2023-08-20T04:41:58.726Z,99432.84
2023-08-20T04:44:26.120Z,99431.84
2023-08-20T04:46:53.219Z,99440.63
2023-08-20T04:49:20.502Z,99443.41
2023-08-20T04:51:47.881Z,99445.56
2023-08-20T04:54:14.784Z,99447.41
2023-08-20T04:56:43.273Z,99444.25
2023-08-20T04:59:10.652Z,99460.38
2023-08-20T05:01:37.962Z,99456.75
2023-08-20T05:04:05.535Z,99449.81
2023-08-20T05:06:32.873Z,99457.00
2023-08-20T05:09:00.194Z,99459.00
2023-08-20T05:11:30.086Z,99451.75
2023-08-20T05:13:57.100Z,99453.09
2023-08-20T05:16:24.221Z,99453.25
2023-08-20T05:18:51.371Z,99456.09
2023-08-20T05:21:18.749Z,99461.97
2023-08-20T05:23:46.100Z,99453.00
2023-08-20T05:26:13.475Z,99468.59
2023-08-20T05:28:40.647Z,99474.50
2023-08-20T05:31:08.132Z,99476.22
2023-08-20T05:33:35.219Z,99476.38
2023-08-20T05:36:02.389Z,99475.94
2023-08-20T05:38:29.460Z,99475.81
2023-08-20T05:40:56.557Z,99485.34
2023-08-20T05:43:23.670Z,99485.66
2023-08-20T05:45:50.876Z,99487.84
2023-08-20T05:48:17.871Z,99493.59
2023-08-20T05:50:46.247Z,99497.31
2023-08-20T05:53:13.584Z,99509.69
2023-08-20T05:55:41.304Z,99506.56
2023-08-20T05:58:08.428Z,99513.66
2023-08-20T06:00:35.371Z,99504.19
2023-08-20T06:03:02.648Z,99503.81
2023-08-20T06:05:31.026Z,99504.69
2023-08-20T06:07:58.326Z,99511.03
2023-08-20T06:10:25.710Z,99504.88
2023-08-20T06:12:52.694Z,99515.22
2023-08-20T06:15:19.913Z,99505.41
2023-08-20T06:17:46.778Z,99512.47
2023-08-20T06:20:13.738Z,99513.81
2023-08-20T06:22:40.575Z,99514.28
2023-08-20T06:25:08.054Z,99508.41
2023-08-20T06:27:35.865Z,99514.00
2023-08-20T06:30:03.588Z,99509.41
2023-08-20T06:32:31.628Z,99502.75
2023-08-20T06:34:58.767Z,99496.59
2023-08-20T06:37:25.610Z,99499.97
2023-08-20T06:39:52.614Z,99488.44
2023-08-20T06:42:19.521Z,99498.75
2023-08-20T06:44:46.411Z,99494.66
2023-08-20T06:47:13.370Z,99501.28
2023-08-20T06:49:40.249Z,99501.25
2023-08-20T06:52:07.120Z,99509.34
2023-08-20T06:54:33.953Z,99500.63
2023-08-20T06:57:00.860Z,99502.09
2023-08-20T06:59:28.370Z,99505.63
2023-08-20T07:01:55.219Z,99509.47
2023-08-20T07:04:22.354Z,99502.31
2023-08-20T07:06:49.271Z,99512.25
2023-08-20T07:09:24.236Z,99522.44
2023-08-20T07:11:52.371Z,99517.41
2023-08-20T07:14:19.452Z,99517.44
2023-08-20T07:16:48.124Z,99514.22
2023-08-20T07:19:17.587Z,99514.41
2023-08-20T07:21:44.933Z,99520.00
2023-08-20T07:24:12.396Z,99516.34
2023-08-20T07:26:39.325Z,99522.34
2023-08-20T07:29:06.237Z,99522.44
2023-08-20T07:31:34.514Z,99516.22
2023-08-20T07:34:05.985Z,99512.69
2023-08-20T07:36:34.457Z,99515.00
2023-08-20T07:39:03.230Z,99520.13
2023-08-20T07:41:30.738Z,99509.66
2023-08-20T07:43:57.586Z,99518.97
2023-08-20T07:46:24.493Z,99518.91
2023-08-20T07:48:52.103Z,99517.09
2023-08-20T07:51:18.971Z,99514.94
2023-08-20T07:53:48.274Z,99524.91
2023-08-20T07:56:15.830Z,99527.13
2023-08-20T07:58:44.904Z,99519.41
2023-08-20T08:01:11.828Z,99505.34
2023-08-20T08:03:41.532Z,99508.16
2023-08-20T08:06:08.944Z,99509.91
2023-08-20T08:08:35.874Z,99516.31
2023-08-20T08:11:02.802Z,99504.66
2023-08-20T08:13:29.725Z,99507.47
2023-08-20T08:15:56.589Z,99503.88
2023-08-20T08:18:23.678Z,99508.13
2023-08-20T08:20:50.629Z,99500.22
2023-08-20T08:23:18.105Z,99505.94
2023-08-20T08:25:44.973Z,99500.97
2023-08-20T08:28:11.909Z,99503.38
2023-08-20T08:30:39.336Z,99500.22
2023-08-20T08:33:06.401Z,99498.66
2023-08-20T08:35:33.321Z,99494.72
2023-08-20T08:38:00.421Z,99499.88
2023-08-20T08:40:31.850Z,99498.47
2023-08-20T08:42:59.494Z,99499.47
2023-08-20T08:45:27.994Z,99505.69
2023-08-20T08:47:56.527Z,99493.56
2023-08-20T08:50:23.797Z,99496.00
2023-08-20T08:52:52.750Z,99499.09
2023-08-20T08:55:19.742Z,99496.28
2023-08-20T08:57:46.556Z,99487.47
2023-08-20T09:00:14.656Z,99501.41
2023-08-20T09:02:41.749Z,99500.78
2023-08-20T09:05:08.833Z,99490.66
2023-08-20T09:07:35.785Z,99488.81
2023-08-20T09:10:02.731Z,99488.31
2023-08-20T09:12:30.677Z,99491.66
2023-08-20T09:15:01.772Z,99489.06
2023-08-20T09:17:29.877Z,99479.75
2023-08-20T09:19:58.601Z,99492.63
2023-08-20T09:22:26.083Z,99496.28
2023-08-20T09:24:57.653Z,99501.63
2023-08-20T09:27:25.109Z,99505.38
2023-08-20T09:29:54.807Z,99487.31
2023-08-20T09:32:27.171Z,99491.22
2023-08-20T09:34:55.712Z,99491.19
2023-08-20T09:37:26.503Z,99498.81
2023-08-20T09:39:53.491Z,99494.53
2023-08-20T09:42:21.130Z,99497.09
2023-08-20T09:44:52.046Z,99493.91
2023-08-20T09:47:22.477Z,99501.91
2023-08-20T09:49:49.906Z,99502.72
2023-08-20T09:52:22.591Z,99493.09
2023-08-20T09:55:00.939Z,99499.75
2023-08-20T09:57:30.850Z,99492.94
2023-08-20T09:59:59.517Z,99488.66
2023-08-20T10:02:27.267Z,99492.63
2023-08-20T10:04:54.406Z,99492.56
2023-08-20T10:07:23.206Z,99489.66
2023-08-20T10:09:52.153Z,99485.34
2023-08-20T10:12:19.435Z,99486.09
2023-08-20T10:14:46.843Z,99481.84
2023-08-20T10:17:14.120Z,99488.81
2023-08-20T10:19:42.070Z,99492.31
2023-08-20T10:22:09.169Z,99495.47
2023-08-20T10:24:48.603Z,99490.09
2023-08-20T10:27:29.162Z,99494.28
2023-08-20T10:29:56.407Z,99485.78
2023-08-20T10:32:54.848Z,99489.19
2023-08-20T10:35:27.716Z,99486.22
2023-08-20T10:38:08.735Z,99490.66
2023-08-20T10:40:57.989Z,99491.16
2023-08-20T10:43:31.345Z,99483.13
2023-08-20T10:46:08.964Z,99483.94
2023-08-20T10:48:39.498Z,99480.38
2023-08-20T10:51:18.376Z,99485.06
2023-08-20T10:54:06.975Z,99473.75
2023-08-20T10:56:46.106Z,99479.19
2023-08-20T10:59:18.699Z,99474.44
2023-08-20T11:01:47.587Z,99482.63
2023-08-20T11:04:19.150Z,99472.94
2023-08-20T11:06:47.443Z,99481.56
2023-08-20T11:09:14.892Z,99488.59
2023-08-20T11:11:42.486Z,99478.50
2023-08-20T11:14:17.129Z,99475.63
2023-08-20T11:16:48.177Z,99469.66
2023-08-20T11:19:16.481Z,99467.34
2023-08-20T11:21:43.830Z,99472.28
2023-08-20T11:24:11.898Z,99475.44
2023-08-20T11:26:43.285Z,99473.31
2023-08-20T11:29:13.657Z,99467.00
2023-08-20T11:31:41.282Z,99465.88
2023-08-20T11:34:11.633Z,99473.25
2023-08-20T11:36:40.966Z,99468.06
2023-08-20T11:39:09.335Z,99462.47
2023-08-20T11:41:40.299Z,99467.88
2023-08-20T11:44:09.517Z,99458.91
2023-08-20T11:46:44.707Z,99471.34
2023-08-20T11:49:13.669Z,99460.50
2023-08-20T11:51:43.372Z,99456.88
2023-08-20T11:54:12.380Z,99472.63
2023-08-20T11:56:53.232Z,99461.28
2023-08-20T11:59:21.340Z,99458.38
2023-08-20T12:04:34.341Z,99456.94
2023-08-20T12:07:15.609Z,99456.16
2023-08-20T12:09:43.530Z,99459.44
2023-08-20T12:12:11.034Z,99450.06
2023-08-20T12:14:38.218Z,99452.28
2023-08-20T12:17:05.394Z,99455.31
2023-08-20T12:19:32.293Z,99444.81
2023-08-20T12:21:59.128Z,99448.69
2023-08-20T12:24:27.401Z,99447.25
2023-08-20T12:26:54.728Z,99445.19
2023-08-20T12:29:21.853Z,99446.41
2023-08-20T12:31:49.161Z,99448.13
2023-08-20T12:34:16.031Z,99439.91
2023-08-20T12:36:43.307Z,99438.22
2023-08-20T12:39:10.292Z,99437.97
2023-08-20T12:41:40.093Z,99436.97
2023-08-20T12:44:07.345Z,99436.44
2023-08-20T12:46:34.288Z,99433.31
2023-08-20T12:49:01.274Z,99428.53
2023-08-20T12:51:28.581Z,99420.69
2023-08-20T12:53:55.628Z,99433.16
2023-08-20T12:56:22.674Z,99428.41
2023-08-20T12:58:49.542Z,99429.09
2023-08-20T13:01:16.939Z,99423.91
2023-08-20T13:03:44.541Z,99419.25
2023-08-20T13:06:11.885Z,99423.50
2023-08-20T13:08:38.984Z,99417.09
2023-08-20T13:11:07.808Z,99412.66
2023-08-20T13:13:35.640Z,99407.44
2023-08-20T13:16:03.645Z,99404.47
2023-08-20T13:18:31.650Z,99408.59
2023-08-20T13:20:58.599Z,99407.78
2023-08-20T13:23:25.538Z,99406.53
2023-08-20T13:25:52.454Z,99403.84
2023-08-20T13:28:19.740Z,99396.75
2023-08-20T13:30:47.597Z,99404.06
2023-08-20T13:33:15.379Z,99398.13
2023-08-20T13:35:43.087Z,99390.41
2023-08-20T13:38:10.338Z,99397.94
2023-08-20T13:40:37.599Z,99391.75
2023-08-20T13:43:04.794Z,99390.66
2023-08-20T13:45:32.949Z,99387.00
2023-08-20T13:47:59.881Z,99387.78
2023-08-20T13:50:27.128Z,99387.13
2023-08-20T13:52:59.472Z,99385.81
2023-08-20T13:55:28.897Z,99386.75
2023-08-20T13:57:55.952Z,99378.22
2023-08-20T14:00:23.414Z,99376.78
2023-08-20T14:02:50.960Z,99379.47
2023-08-20T14:05:17.960Z,99373.81
2023-08-20T14:07:44.787Z,99375.28
2023-08-20T14:10:12.446Z,99376.06
2023-08-20T14:12:41.366Z,99383.34
2023-08-20T14:15:10.142Z,99390.47
2023-08-20T14:17:37.482Z,99386.34
2023-08-20T14:20:05.135Z,99382.66
2023-08-20T14:22:34.803Z,99375.56
2023-08-20T14:25:03.031Z,99383.28
2023-08-20T14:27:29.964Z,99387.91
2023-08-20T14:29:57.378Z,99384.59
2023-08-20T14:32:24.457Z,99380.69
2023-08-20T14:34:51.534Z,99377.34
2023-08-20T14:37:18.946Z,99385.06
2023-08-20T14:39:45.878Z,99385.56
2023-08-20T14:42:13.411Z,99388.50
2023-08-20T14:44:40.280Z,99384.09
2023-08-20T14:47:08.246Z,99385.56
2023-08-20T14:49:35.544Z,99385.31
2023-08-20T14:52:17.890Z,99382.75
2023-08-20T14:54:47.715Z,99390.22
2023-08-20T14:57:16.630Z,99389.44
2023-08-20T14:59:43.828Z,99385.28
2023-08-20T15:02:10.873Z,99385.50
2023-08-20T15:04:37.891Z,99394.81
2023-08-20T15:07:04.917Z,99389.69
2023-08-20T15:09:31.835Z,99386.84
2023-08-20T15:11:58.660Z,99389.84
2023-08-20T15:14:25.476Z,99389.16
2023-08-20T15:16:52.531Z,99386.22
2023-08-20T15:19:19.918Z,99383.78
2023-08-20T15:21:47.565Z,99384.28
2023-08-20T15:24:14.578Z,99388.19
2023-08-20T15:26:41.929Z,99386.47
2023-08-20T15:29:08.841Z,99384.25
2023-08-20T15:31:35.935Z,99374.09
2023-08-20T15:34:05.946Z,99370.09
2023-08-20T15:36:32.798Z,99377.75
2023-08-20T15:39:00.146Z,99368.75
2023-08-20T15:41:27.006Z,99370.81
2023-08-20T15:43:53.909Z,99365.28
2023-08-20T15:46:21.007Z,99376.47
2023-08-20T15:48:47.871Z,99372.00
2023-08-20T15:51:14.781Z,99375.41
2023-08-20T15:53:41.697Z,99373.06
2023-08-20T15:56:08.548Z,99372.09
2023-08-20T15:58:35.441Z,99368.75
2023-08-20T16:01:03.682Z,99358.84
2023-08-20T16:03:31.556Z,99358.44
2023-08-20T16:06:00.164Z,99366.72
2023-08-20T16:08:27.124Z,99363.44
2023-08-20T16:10:54.091Z,99369.28
2023-08-20T16:13:20.913Z,99377.66
2023-08-20T16:15:49.431Z,99372.91
2023-08-20T16:18:16.452Z,99360.53
2023-08-20T16:20:44.000Z,99373.94
2023-08-20T16:23:11.031Z,99375.44
2023-08-20T16:25:40.230Z,99379.59
2023-08-20T16:28:07.317Z,99375.63
2023-08-20T16:30:35.000Z,99373.53
2023-08-20T16:33:01.955Z,99378.97
2023-08-20T16:35:30.654Z,99376.91
2023-08-20T16:37:57.581Z,99385.19
2023-08-20T16:40:24.524Z,99382.28
2023-08-20T16:42:51.696Z,99386.00
2023-08-20T16:45:19.246Z,99377.19
2023-08-20T16:47:46.283Z,99375.81
2023-08-20T16:50:13.264Z,99379.22
2023-08-20T16:52:40.256Z,99389.38
2023-08-20T16:55:07.359Z,99388.25
2023-08-20T16:57:34.291Z,99387.81
2023-08-20T17:00:01.379Z,99386.53
2023-08-20T17:02:28.282Z,99386.16
2023-08-20T17:04:55.292Z,99385.78
2023-08-20T17:07:22.191Z,99388.84
2023-08-20T17:09:49.186Z,99389.53
2023-08-20T17:12:16.530Z,99396.91
2023-08-20T17:14:44.093Z,99386.28
2023-08-20T17:17:11.569Z,99399.91
2023-08-20T17:19:38.507Z,99402.19
2023-08-20T17:22:05.704Z,99393.88
2023-08-20T17:24:32.733Z,99395.31
2023-08-20T17:26:59.721Z,99398.47
2023-08-20T17:29:26.735Z,99397.41
2023-08-20T17:31:54.190Z,99400.75
2023-08-20T17:34:21.186Z,99406.44
2023-08-20T17:36:48.240Z,99401.94
2023-08-20T17:39:16.699Z,99403.53
2023-08-20T17:41:44.447Z,99398.34
2023-08-20T17:44:11.718Z,99392.69
2023-08-20T17:46:49.757Z,99404.50
2023-08-20T17:49:18.336Z,99402.34
2023-08-20T17:51:45.402Z,99407.38
2023-08-20T17:54:12.972Z,99407.00
2023-08-20T17:56:40.482Z,99403.13
2023-08-20T17:59:09.210Z,99415.34
2023-08-20T18:01:36.293Z,99423.00
2023-08-20T18:04:04.523Z,99406.75
2023-08-20T18:06:31.699Z,99416.63
2023-08-20T18:08:58.919Z,99423.75
2023-08-20T18:11:25.976Z,99419.72
2023-08-20T18:13:52.982Z,99415.66
2023-08-20T18:16:19.959Z,99430.81
2023-08-20T18:18:46.898Z,99434.84
2023-08-20T18:21:13.722Z,99426.22
2023-08-20T18:23:40.541Z,99445.16
2023-08-20T18:26:08.938Z,99433.72
2023-08-20T18:28:36.243Z,99443.06
2023-08-20T18:31:04.099Z,99451.53
2023-08-20T18:33:32.291Z,99451.25
2023-08-20T18:36:01.196Z,99456.16
2023-08-20T18:38:41.276Z,99450.69
2023-08-20T18:41:16.166Z,99460.94
2023-08-20T18:43:43.047Z,99457.44
2023-08-20T18:46:10.233Z,99460.63
2023-08-20T18:48:37.472Z,99458.97
2023-08-20T18:51:06.543Z,99459.41
2023-08-20T18:53:37.229Z,99468.25
2023-08-20T18:56:07.115Z,99469.56
2023-08-20T18:58:34.914Z,99477.03
2023-08-20T19:01:02.185Z,99469.28
2023-08-20T19:03:29.287Z,99478.81
2023-08-20T19:05:56.385Z,99477.88
2023-08-20T19:08:24.192Z,99478.75
2023-08-20T19:10:51.498Z,99481.41
2023-08-20T19:13:18.586Z,99485.06
2023-08-20T19:15:49.973Z,99479.97
2023-08-20T19:18:17.687Z,99486.50
2023-08-20T19:20:49.341Z,99486.88
2023-08-20T19:23:16.523Z,99488.16
2023-08-20T19:25:43.808Z,99483.19
2023-08-20T19:28:13.814Z,99490.94
2023-08-20T19:30:49.020Z,99492.81
2023-08-20T19:33:16.364Z,99498.13
2023-08-20T19:35:45.674Z,99499.78
2023-08-20T19:38:14.262Z,99502.06
2023-08-20T19:40:42.059Z,99507.38
2023-08-20T19:43:09.681Z,99509.00
2023-08-20T19:45:36.634Z,99509.00
2023-08-20T19:48:03.877Z,99497.00
2023-08-20T19:50:30.777Z,99497.47
2023-08-20T19:52:57.750Z,99501.78
2023-08-20T19:55:25.057Z,99502.81
2023-08-20T19:57:51.918Z,99508.22
2023-08-20T20:04:31.357Z,99512.00
2023-08-20T20:07:09.379Z,99505.44
2023-08-20T20:09:44.558Z,99513.88
2023-08-20T20:12:11.366Z,99515.19
2023-08-20T20:14:38.217Z,99508.25
2023-08-20T20:17:05.244Z,99518.91
2023-08-20T20:19:32.126Z,99514.66
2023-08-20T20:21:58.977Z,99522.47
2023-08-20T20:24:25.888Z,99517.19
2023-08-20T20:26:52.727Z,99521.03
2023-08-20T20:29:19.547Z,99518.47
2023-08-20T20:31:46.481Z,99521.13
2023-08-20T20:34:14.633Z,99520.22
2023-08-20T20:36:41.503Z,99520.44
2023-08-20T20:39:08.670Z,99516.38
2023-08-20T20:41:35.782Z,99518.16
2023-08-20T20:44:02.765Z,99510.75
2023-08-20T20:46:29.681Z,99509.94
2023-08-20T20:48:56.578Z,99511.56
2023-08-20T20:51:23.685Z,99515.06
2023-08-20T20:53:50.725Z,99514.16
2023-08-20T20:56:17.617Z,99505.94
2023-08-20T20:58:44.523Z,99501.69
2023-08-20T21:01:11.726Z,99504.25
2023-08-20T21:03:39.046Z,99510.50
2023-08-20T21:06:07.953Z,99511.56
2023-08-20T21:08:35.277Z,99503.78
2023-08-20T21:11:02.316Z,99505.69
2023-08-20T21:13:30.866Z,99517.97
2023-08-20T21:15:58.550Z,99510.50
2023-08-20T21:18:25.697Z,99516.84
2023-08-20T21:20:55.226Z,99514.78
2023-08-20T21:23:22.465Z,99514.31
2023-08-20T21:25:49.675Z,99527.63
2023-08-20T21:28:16.757Z,99523.38
2023-08-20T21:30:43.665Z,99533.28
2023-08-20T21:33:10.941Z,99521.03
2023-08-20T21:35:38.076Z,99527.13
2023-08-20T21:38:05.763Z,99521.19
2023-08-20T21:40:32.891Z,99523.00
2023-08-20T21:43:00.194Z,99538.81
2023-08-20T21:45:27.462Z,99528.28
2023-08-20T21:47:54.787Z,99528.34
2023-08-20T21:50:22.193Z,99534.94
2023-08-20T21:52:49.596Z,99536.78
2023-08-20T21:55:16.826Z,99537.59
2023-08-20T21:57:44.261Z,99544.56
2023-08-20T22:00:18.031Z,99545.66
2023-08-20T22:02:46.545Z,99547.97
2023-08-20T22:05:21.360Z,99547.31
2023-08-20T22:07:50.897Z,99556.44
2023-08-20T22:10:20.277Z,99550.31
2023-08-20T22:12:48.743Z,99550.34
2023-08-20T22:15:15.916Z,99553.63
2023-08-20T22:17:43.398Z,99550.19
2023-08-20T22:20:11.446Z,99546.13
2023-08-20T22:22:39.864Z,99546.78
2023-08-20T22:25:08.622Z,99546.13
2023-08-20T22:27:35.902Z,99555.72
2023-08-20T22:30:02.924Z,99550.88
2023-08-20T22:32:29.885Z,99547.56
2023-08-20T22:34:56.871Z,99550.22
2023-08-20T22:37:27.021Z,99552.72
2023-08-20T22:39:53.966Z,99548.25
2023-08-20T22:42:21.834Z,99540.78
2023-08-20T22:44:48.801Z,99551.41
2023-08-20T22:47:16.130Z,99546.41
2023-08-20T22:49:43.249Z,99548.13
2023-08-20T22:52:10.863Z,99550.19
2023-08-20T22:54:40.451Z,99550.09
2023-08-20T22:57:07.935Z,99548.78
2023-08-20T22:59:35.003Z,99547.75
2023-08-20T23:02:02.482Z,99545.09
2023-08-20T23:04:29.845Z,99549.16
2023-08-20T23:06:57.131Z,99553.53
2023-08-20T23:09:24.416Z,99553.91
2023-08-20T23:11:51.668Z,99552.22
2023-08-20T23:14:21.233Z,99540.72
2023-08-20T23:16:48.137Z,99540.78
2023-08-20T23:19:15.191Z,99540.84
2023-08-20T23:21:42.136Z,99545.22
2023-08-20T23:24:09.187Z,99531.88
2023-08-20T23:26:36.437Z,99535.00
2023-08-20T23:29:05.518Z,99534.31
2023-08-20T23:31:33.964Z,99534.63
2023-08-20T23:34:01.284Z,99522.84
2023-08-20T23:36:28.274Z,99538.91
2023-08-20T23:38:55.349Z,99531.56
2023-08-20T23:41:22.640Z,99520.28
2023-08-20T23:43:49.939Z,99517.91
2023-08-20T23:46:17.359Z,99522.22
2023-08-20T23:48:44.503Z,99515.94
2023-08-20T23:51:12.763Z,99514.13
2023-08-20T23:53:39.863Z,99514.03
2023-08-20T23:56:06.996Z,99513.91
2023-08-20T23:58:36.002Z,99514.19
